sensor_id;sensor_type;location;lat;lon;timestamp;pressure;altitude;pressure_sealevel;temperature;humidity
9225;BME280;4647;48.072;11.616;2023-04-07T00:02:08;95270.91;;;3.20;57.06
9225;BME280;4647;48.072;11.616;2023-04-07T00:04:37;95268.44;;;3.07;57.29
9225;BME280;4647;48.072;11.616;2023-04-07T00:07:05;95270.63;;;2.98;57.58
9225;BME280;4647;48.072;11.616;2023-04-07T00:09:33;95267.56;;;3.00;57.70
9225;BME280;4647;48.072;11.616;2023-04-07T00:12:02;95265.34;;;2.79;58.19
9225;BME280;4647;48.072;11.616;2023-04-07T00:14:33;95232.47;;;2.52;58.66
9225;BME280;4647;48.072;11.616;2023-04-07T00:17:01;95264.59;;;2.78;58.51
9225;BME280;4647;48.072;11.616;2023-04-07T00:19:30;95264.03;;;2.92;57.87
9225;BME280;4647;48.072;11.616;2023-04-07T00:21:58;95245.97;;;2.86;57.86
9225;BME280;4647;48.072;11.616;2023-04-07T00:24:26;95258.16;;;3.10;57.19
9225;BME280;4647;48.072;11.616;2023-04-07T00:26:55;95265.50;;;3.16;56.91
9225;BME280;4647;48.072;11.616;2023-04-07T00:29:23;95266.28;;;3.17;56.78
9225;BME280;4647;48.072;11.616;2023-04-07T00:31:54;95264.44;;;3.21;56.75
9225;BME280;4647;48.072;11.616;2023-04-07T00:34:23;95254.84;;;3.20;56.87
9225;BME280;4647;48.072;11.616;2023-04-07T00:36:51;95259.13;;;3.24;56.87
9225;BME280;4647;48.072;11.616;2023-04-07T00:39:20;95251.44;;;3.23;57.01
9225;BME280;4647;48.072;11.616;2023-04-07T00:41:49;95261.69;;;3.17;57.43
9225;BME280;4647;48.072;11.616;2023-04-07T00:44:17;95257.63;;;3.27;57.06
9225;BME280;4647;48.072;11.616;2023-04-07T00:46:46;95247.09;;;3.41;56.66
9225;BME280;4647;48.072;11.616;2023-04-07T00:49:17;95250.50;;;3.38;56.85
9225;BME280;4647;48.072;11.616;2023-04-07T00:51:46;95245.78;;;3.58;55.94
9225;BME280;4647;48.072;11.616;2023-04-07T00:54:16;95243.59;;;3.70;55.80
9225;BME280;4647;48.072;11.616;2023-04-07T00:56:45;95257.81;;;3.75;55.74
9225;BME280;4647;48.072;11.616;2023-04-07T00:59:13;95243.59;;;3.70;55.85
9225;BME280;4647;48.072;11.616;2023-04-07T01:01:46;95243.94;;;3.65;55.97
9225;BME280;4647;48.072;11.616;2023-04-07T01:04:25;95243.13;;;3.61;56.15
9225;BME280;4647;48.072;11.616;2023-04-07T01:06:57;95232.25;;;3.47;56.48
9225;BME280;4647;48.072;11.616;2023-04-07T01:09:34;95243.28;;;3.42;57.04
9225;BME280;4647;48.072;11.616;2023-04-07T01:12:09;95239.47;;;3.43;57.01
9225;BME280;4647;48.072;11.616;2023-04-07T01:14:46;95241.03;;;3.48;57.18
9225;BME280;4647;48.072;11.616;2023-04-07T01:17:19;95233.63;;;3.34;57.34
9225;BME280;4647;48.072;11.616;2023-04-07T01:19:55;95233.63;;;3.34;57.48
9225;BME280;4647;48.072;11.616;2023-04-07T01:22:28;95227.78;;;3.28;57.53
9225;BME280;4647;48.072;11.616;2023-04-07T01:25:12;95223.53;;;3.24;57.78
9225;BME280;4647;48.072;11.616;2023-04-07T01:27:54;95221.66;;;3.28;57.90
9225;BME280;4647;48.072;11.616;2023-04-07T01:30:31;95225.47;;;3.27;58.16
9225;BME280;4647;48.072;11.616;2023-04-07T01:33:00;95226.66;;;3.29;57.97
9225;BME280;4647;48.072;11.616;2023-04-07T01:35:31;95224.50;;;3.38;57.90
9225;BME280;4647;48.072;11.616;2023-04-07T01:38:01;95223.38;;;3.39;57.98
9225;BME280;4647;48.072;11.616;2023-04-07T01:40:32;95229.44;;;3.36;58.06
9225;BME280;4647;48.072;11.616;2023-04-07T01:43:01;95228.44;;;3.48;58.02
9225;BME280;4647;48.072;11.616;2023-04-07T01:45:33;95226.63;;;3.56;58.21
9225;BME280;4647;48.072;11.616;2023-04-07T01:48:05;95220.19;;;3.64;58.39
9225;BME280;4647;48.072;11.616;2023-04-07T01:50:35;95226.69;;;3.63;58.44
9225;BME280;4647;48.072;11.616;2023-04-07T01:53:04;95221.41;;;3.70;58.20
9225;BME280;4647;48.072;11.616;2023-04-07T01:55:34;95216.41;;;3.68;58.30
9225;BME280;4647;48.072;11.616;2023-04-07T01:58:05;95222.63;;;3.76;58.50
9225;BME280;4647;48.072;11.616;2023-04-07T02:00:36;95198.00;;;3.63;58.30
9225;BME280;4647;48.072;11.616;2023-04-07T02:03:10;95214.50;;;3.69;58.61
9225;BME280;4647;48.072;11.616;2023-04-07T02:05:46;95210.34;;;3.75;58.50
9225;BME280;4647;48.072;11.616;2023-04-07T02:08:16;95213.00;;;3.72;58.80
9225;BME280;4647;48.072;11.616;2023-04-07T02:10:47;95212.31;;;3.45;59.23
9225;BME280;4647;48.072;11.616;2023-04-07T02:13:18;95213.50;;;3.81;59.23
9225;BME280;4647;48.072;11.616;2023-04-07T02:15:50;95208.72;;;3.63;60.07
9225;BME280;4647;48.072;11.616;2023-04-07T02:18:21;95214.56;;;3.76;60.29
9225;BME280;4647;48.072;11.616;2023-04-07T02:20:51;95215.09;;;3.89;60.73
9225;BME280;4647;48.072;11.616;2023-04-07T02:23:20;95211.78;;;4.03;60.75
9225;BME280;4647;48.072;11.616;2023-04-07T02:25:48;95209.19;;;4.13;61.01
9225;BME280;4647;48.072;11.616;2023-04-07T02:28:17;95200.53;;;4.27;61.16
9225;BME280;4647;48.072;11.616;2023-04-07T02:30:46;95194.44;;;4.34;61.13
9225;BME280;4647;48.072;11.616;2023-04-07T02:33:17;95202.50;;;4.37;61.69
9225;BME280;4647;48.072;11.616;2023-04-07T02:35:45;95195.66;;;4.43;61.94
9225;BME280;4647;48.072;11.616;2023-04-07T02:38:13;95206.91;;;4.59;62.42
9225;BME280;4647;48.072;11.616;2023-04-07T02:40:42;95208.09;;;4.69;62.42
9225;BME280;4647;48.072;11.616;2023-04-07T02:43:10;95211.63;;;4.77;62.49
9225;BME280;4647;48.072;11.616;2023-04-07T02:45:39;95204.28;;;4.70;62.55
9225;BME280;4647;48.072;11.616;2023-04-07T02:48:07;95220.88;;;4.86;62.58
9225;BME280;4647;48.072;11.616;2023-04-07T02:50:38;95221.72;;;4.98;62.72
9225;BME280;4647;48.072;11.616;2023-04-07T02:53:06;95218.69;;;5.03;62.89
9225;BME280;4647;48.072;11.616;2023-04-07T02:55:35;95218.31;;;5.08;63.34
9225;BME280;4647;48.072;11.616;2023-04-07T02:58:03;95216.03;;;5.06;64.08
9225;BME280;4647;48.072;11.616;2023-04-07T03:00:32;95216.44;;;5.12;64.07
9225;BME280;4647;48.072;11.616;2023-04-07T03:03:01;95217.56;;;5.11;64.37
9225;BME280;4647;48.072;11.616;2023-04-07T03:05:29;95226.00;;;5.06;65.23
9225;BME280;4647;48.072;11.616;2023-04-07T03:08:00;95217.97;;;5.13;64.96
9225;BME280;4647;48.072;11.616;2023-04-07T03:10:29;95209.88;;;5.06;65.32
9225;BME280;4647;48.072;11.616;2023-04-07T03:12:57;95226.38;;;5.04;65.46
9225;BME280;4647;48.072;11.616;2023-04-07T03:15:25;95213.31;;;5.03;65.78
9225;BME280;4647;48.072;11.616;2023-04-07T03:17:54;95211.41;;;5.03;65.66
9225;BME280;4647;48.072;11.616;2023-04-07T03:20:22;95203.75;;;5.05;65.67
9225;BME280;4647;48.072;11.616;2023-04-07T03:22:51;95207.19;;;5.06;65.82
9225;BME280;4647;48.072;11.616;2023-04-07T03:25:24;95210.28;;;5.08;66.15
9225;BME280;4647;48.072;11.616;2023-04-07T03:27:52;95201.34;;;4.89;67.09
9225;BME280;4647;48.072;11.616;2023-04-07T03:30:21;95202.16;;;4.97;67.12
9225;BME280;4647;48.072;11.616;2023-04-07T03:32:49;95207.16;;;4.99;67.66
9225;BME280;4647;48.072;11.616;2023-04-07T03:35:17;95199.44;;;4.93;68.05
9225;BME280;4647;48.072;11.616;2023-04-07T03:37:46;95196.38;;;4.95;68.44
9225;BME280;4647;48.072;11.616;2023-04-07T03:40:14;95190.22;;;4.91;68.88
9225;BME280;4647;48.072;11.616;2023-04-07T03:42:47;95175.25;;;4.90;68.70
9225;BME280;4647;48.072;11.616;2023-04-07T03:45:16;95184.88;;;4.94;69.18
9225;BME280;4647;48.072;11.616;2023-04-07T03:47:44;95189.09;;;4.96;69.33
9225;BME280;4647;48.072;11.616;2023-04-07T03:50:13;95189.88;;;4.96;69.52
9225;BME280;4647;48.072;11.616;2023-04-07T03:52:42;95186.84;;;4.98;69.72
9225;BME280;4647;48.072;11.616;2023-04-07T03:55:11;95188.38;;;4.99;69.92
9225;BME280;4647;48.072;11.616;2023-04-07T03:57:40;95176.81;;;4.91;70.09
9225;BME280;4647;48.072;11.616;2023-04-07T04:00:12;95186.47;;;5.03;70.14
9225;BME280;4647;48.072;11.616;2023-04-07T04:02:41;95186.09;;;5.04;69.60
9225;BME280;4647;48.072;11.616;2023-04-07T04:05:10;95184.81;;;4.84;69.98
9225;BME280;4647;48.072;11.616;2023-04-07T04:07:38;95181.25;;;4.66;70.36
9225;BME280;4647;48.072;11.616;2023-04-07T04:10:07;95175.09;;;4.61;70.66
9225;BME280;4647;48.072;11.616;2023-04-07T04:12:36;95183.97;;;4.69;70.69
9225;BME280;4647;48.072;11.616;2023-04-07T04:15:07;95171.66;;;4.61;70.50
9225;BME280;4647;48.072;11.616;2023-04-07T04:17:38;95169.78;;;4.72;70.34
9225;BME280;4647;48.072;11.616;2023-04-07T04:20:07;95169.34;;;4.59;70.37
9225;BME280;4647;48.072;11.616;2023-04-07T04:22:36;95171.28;;;4.62;70.90
9225;BME280;4647;48.072;11.616;2023-04-07T04:25:05;95174.78;;;4.19;72.44
9225;BME280;4647;48.072;11.616;2023-04-07T04:27:33;95177.81;;;4.17;72.90
9225;BME280;4647;48.072;11.616;2023-04-07T04:30:01;95167.91;;;4.25;72.53
9225;BME280;4647;48.072;11.616;2023-04-07T04:32:30;95176.72;;;4.22;72.66
9225;BME280;4647;48.072;11.616;2023-04-07T04:35:02;95181.06;;;4.41;71.61
9225;BME280;4647;48.072;11.616;2023-04-07T04:37:30;95175.81;;;4.51;71.40
9225;BME280;4647;48.072;11.616;2023-04-07T04:39:59;95179.88;;;4.31;71.70
9225;BME280;4647;48.072;11.616;2023-04-07T04:42:28;95174.19;;;4.40;71.80
9225;BME280;4647;48.072;11.616;2023-04-07T04:44:58;95179.19;;;4.45;71.59
9225;BME280;4647;48.072;11.616;2023-04-07T04:47:26;95168.13;;;4.50;71.40
9225;BME280;4647;48.072;11.616;2023-04-07T04:49:54;95172.38;;;4.54;71.10
9225;BME280;4647;48.072;11.616;2023-04-07T04:52:26;95158.97;;;4.54;70.65
9225;BME280;4647;48.072;11.616;2023-04-07T04:54:54;95166.31;;;4.68;70.70
9225;BME280;4647;48.072;11.616;2023-04-07T04:57:22;95165.25;;;4.80;70.02
9225;BME280;4647;48.072;11.616;2023-04-07T04:59:51;95166.06;;;4.87;69.34
9225;BME280;4647;48.072;11.616;2023-04-07T05:02:20;95163.75;;;4.89;69.55
9225;BME280;4647;48.072;11.616;2023-04-07T05:04:48;95166.84;;;4.91;69.45
9225;BME280;4647;48.072;11.616;2023-04-07T05:07:16;95150.72;;;4.88;68.99
9225;BME280;4647;48.072;11.616;2023-04-07T05:09:47;95166.44;;;4.89;69.20
9225;BME280;4647;48.072;11.616;2023-04-07T05:12:16;95166.13;;;4.98;69.04
9225;BME280;4647;48.072;11.616;2023-04-07T05:14:44;95157.69;;;5.03;69.06
9225;BME280;4647;48.072;11.616;2023-04-07T05:17:13;95158.09;;;5.02;69.09
9225;BME280;4647;48.072;11.616;2023-04-07T05:19:42;95156.97;;;5.10;68.80
9225;BME280;4647;48.072;11.616;2023-04-07T05:22:10;95158.53;;;5.18;68.97
9225;BME280;4647;48.072;11.616;2023-04-07T05:24:38;95156.59;;;5.18;69.06
9225;BME280;4647;48.072;11.616;2023-04-07T05:27:09;95163.34;;;4.80;70.53
9225;BME280;4647;48.072;11.616;2023-04-07T05:29:38;95166.66;;;4.63;71.29
9225;BME280;4647;48.072;11.616;2023-04-07T05:32:06;95157.28;;;4.36;72.46
9225;BME280;4647;48.072;11.616;2023-04-07T05:34:35;95164.53;;;4.31;72.71
9225;BME280;4647;48.072;11.616;2023-04-07T05:37:04;95156.69;;;4.60;71.83
9225;BME280;4647;48.072;11.616;2023-04-07T05:39:32;95161.91;;;4.39;73.00
9225;BME280;4647;48.072;11.616;2023-04-07T05:42:01;95164.03;;;4.70;72.01
9225;BME280;4647;48.072;11.616;2023-04-07T05:44:32;95164.16;;;4.95;71.18
9225;BME280;4647;48.072;11.616;2023-04-07T05:47:00;95160.75;;;4.98;70.81
9225;BME280;4647;48.072;11.616;2023-04-07T05:49:33;95159.16;;;4.93;71.08
9225;BME280;4647;48.072;11.616;2023-04-07T05:52:01;95162.72;;;5.08;70.52
9225;BME280;4647;48.072;11.616;2023-04-07T05:54:30;95160.50;;;5.28;70.11
9225;BME280;4647;48.072;11.616;2023-04-07T05:56:58;95133.25;;;5.26;69.51
9225;BME280;4647;48.072;11.616;2023-04-07T05:59:28;95153.66;;;5.55;68.81
9225;BME280;4647;48.072;11.616;2023-04-07T06:01:59;95148.72;;;5.72;68.45
9225;BME280;4647;48.072;11.616;2023-04-07T06:04:27;95152.19;;;5.83;67.83
9225;BME280;4647;48.072;11.616;2023-04-07T06:06:57;95155.59;;;5.55;68.95
9225;BME280;4647;48.072;11.616;2023-04-07T06:09:25;95137.53;;;5.52;68.50
9225;BME280;4647;48.072;11.616;2023-04-07T06:11:54;95145.84;;;5.18;70.66
9225;BME280;4647;48.072;11.616;2023-04-07T06:14:22;95136.69;;;5.23;70.25
9225;BME280;4647;48.072;11.616;2023-04-07T06:16:51;95125.97;;;5.30;69.66
9225;BME280;4647;48.072;11.616;2023-04-07T06:19:22;95130.94;;;5.28;69.87
9225;BME280;4647;48.072;11.616;2023-04-07T06:21:51;95137.50;;;5.38;69.71
9225;BME280;4647;48.072;11.616;2023-04-07T06:24:20;95134.84;;;5.48;69.47
9225;BME280;4647;48.072;11.616;2023-04-07T06:26:50;95137.97;;;5.72;68.50
9225;BME280;4647;48.072;11.616;2023-04-07T06:29:19;95140.28;;;5.73;68.18
9225;BME280;4647;48.072;11.616;2023-04-07T06:31:47;95131.06;;;5.71;68.75
9225;BME280;4647;48.072;11.616;2023-04-07T06:34:15;95121.47;;;5.77;67.97
9225;BME280;4647;48.072;11.616;2023-04-07T06:36:47;95119.22;;;5.93;67.49
9225;BME280;4647;48.072;11.616;2023-04-07T06:39:15;95123.06;;;5.99;67.63
9225;BME280;4647;48.072;11.616;2023-04-07T06:41:44;95125.75;;;5.99;67.44
9225;BME280;4647;48.072;11.616;2023-04-07T06:44:12;95130.31;;;6.66;65.49
9225;BME280;4647;48.072;11.616;2023-04-07T06:46:41;95128.81;;;6.51;65.34
9225;BME280;4647;48.072;11.616;2023-04-07T06:49:11;95126.13;;;6.40;66.10
9225;BME280;4647;48.072;11.616;2023-04-07T06:51:40;95122.94;;;6.85;65.16
9225;BME280;4647;48.072;11.616;2023-04-07T06:54:11;95123.97;;;7.26;63.31
9225;BME280;4647;48.072;11.616;2023-04-07T06:56:40;95114.09;;;6.95;63.49
9225;BME280;4647;48.072;11.616;2023-04-07T06:59:09;95104.16;;;6.74;63.80
9225;BME280;4647;48.072;11.616;2023-04-07T07:01:37;95125.22;;;7.04;63.77
9225;BME280;4647;48.072;11.616;2023-04-07T07:04:06;95123.25;;;7.08;63.18
9225;BME280;4647;48.072;11.616;2023-04-07T07:06:35;95123.25;;;7.08;63.06
9225;BME280;4647;48.072;11.616;2023-04-07T07:09:03;95106.69;;;7.20;62.63
9225;BME280;4647;48.072;11.616;2023-04-07T07:11:34;95117.66;;;7.61;62.05
9225;BME280;4647;48.072;11.616;2023-04-07T07:14:04;95111.50;;;8.16;59.97
9225;BME280;4647;48.072;11.616;2023-04-07T07:16:33;95119.31;;;8.00;59.90
9225;BME280;4647;48.072;11.616;2023-04-07T07:19:01;95118.53;;;8.55;58.70
9225;BME280;4647;48.072;11.616;2023-04-07T07:21:30;95124.88;;;9.13;57.13
9225;BME280;4647;48.072;11.616;2023-04-07T07:23:58;95124.97;;;9.67;55.65
9225;BME280;4647;48.072;11.616;2023-04-07T07:26:26;95122.13;;;10.04;53.88
9225;BME280;4647;48.072;11.616;2023-04-07T07:28:58;95129.13;;;10.02;53.79
9225;BME280;4647;48.072;11.616;2023-04-07T07:31:26;95127.84;;;10.10;53.37
9225;BME280;4647;48.072;11.616;2023-04-07T07:33:55;95128.41;;;9.98;53.18
9225;BME280;4647;48.072;11.616;2023-04-07T07:36:25;95123.53;;;9.59;54.45
9225;BME280;4647;48.072;11.616;2023-04-07T07:38:53;95123.28;;;10.30;52.95
9225;BME280;4647;48.072;11.616;2023-04-07T07:41:22;95125.78;;;10.68;51.65
9225;BME280;4647;48.072;11.616;2023-04-07T07:43:50;95119.47;;;10.51;51.10
9225;BME280;4647;48.072;11.616;2023-04-07T07:46:22;95121.41;;;10.00;52.54
9225;BME280;4647;48.072;11.616;2023-04-07T07:48:53;95128.97;;;9.85;53.15
9225;BME280;4647;48.072;11.616;2023-04-07T07:51:21;95131.19;;;9.94;53.29
9225;BME280;4647;48.072;11.616;2023-04-07T07:53:49;95131.47;;;10.00;53.01
9225;BME280;4647;48.072;11.616;2023-04-07T07:56:18;95116.41;;;9.99;52.74
9225;BME280;4647;48.072;11.616;2023-04-07T07:58:46;95120.00;;;10.15;53.00
9225;BME280;4647;48.072;11.616;2023-04-07T08:01:15;95122.31;;;10.17;52.47
9225;BME280;4647;48.072;11.616;2023-04-07T08:03:46;95128.06;;;10.23;52.27
9225;BME280;4647;48.072;11.616;2023-04-07T08:06:15;95129.72;;;10.40;51.83
9225;BME280;4647;48.072;11.616;2023-04-07T08:08:43;95121.66;;;10.36;51.74
9225;BME280;4647;48.072;11.616;2023-04-07T08:11:11;95121.13;;;10.45;51.31
9225;BME280;4647;48.072;11.616;2023-04-07T08:13:40;95126.72;;;10.58;50.27
9225;BME280;4647;48.072;11.616;2023-04-07T08:16:09;95119.72;;;10.10;51.36
9225;BME280;4647;48.072;11.616;2023-04-07T08:18:38;95115.47;;;10.36;50.44
9225;BME280;4647;48.072;11.616;2023-04-07T08:21:09;95125.47;;;10.62;50.27
9225;BME280;4647;48.072;11.616;2023-04-07T08:23:37;95079.69;;;10.25;50.03
9225;BME280;4647;48.072;11.616;2023-04-07T08:26:06;95117.03;;;10.80;49.27
9225;BME280;4647;48.072;11.616;2023-04-07T08:28:34;95120.69;;;11.13;48.73
9225;BME280;4647;48.072;11.616;2023-04-07T08:31:03;95117.06;;;11.59;47.52
9225;BME280;4647;48.072;11.616;2023-04-07T08:33:32;95117.19;;;11.32;47.05
9225;BME280;4647;48.072;11.616;2023-04-07T08:36:00;95118.59;;;11.21;47.49
9225;BME280;4647;48.072;11.616;2023-04-07T08:38:33;95113.59;;;10.99;47.82
9225;BME280;4647;48.072;11.616;2023-04-07T08:41:03;95118.50;;;11.64;47.02
9225;BME280;4647;48.072;11.616;2023-04-07T08:43:35;95117.34;;;11.25;47.69
9225;BME280;4647;48.072;11.616;2023-04-07T08:46:05;95117.16;;;11.36;47.18
9225;BME280;4647;48.072;11.616;2023-04-07T08:48:37;95112.31;;;11.99;45.44
9225;BME280;4647;48.072;11.616;2023-04-07T08:51:07;95112.41;;;11.96;46.24
9225;BME280;4647;48.072;11.616;2023-04-07T08:53:42;95110.59;;;10.94;48.35
9225;BME280;4647;48.072;11.616;2023-04-07T08:56:12;95108.66;;;11.34;47.01
9225;BME280;4647;48.072;11.616;2023-04-07T08:58:41;95125.13;;;11.43;47.40
9225;BME280;4647;48.072;11.616;2023-04-07T09:01:11;95116.13;;;12.02;45.79
9225;BME280;4647;48.072;11.616;2023-04-07T09:03:41;95108.94;;;11.59;46.24
9225;BME280;4647;48.072;11.616;2023-04-07T09:06:10;95125.00;;;11.50;47.34
9225;BME280;4647;48.072;11.616;2023-04-07T09:08:41;95115.56;;;11.19;47.62
9225;BME280;4647;48.072;11.616;2023-04-07T09:11:10;95115.31;;;12.21;46.02
9225;BME280;4647;48.072;11.616;2023-04-07T09:13:39;95106.03;;;12.68;44.21
9225;BME280;4647;48.072;11.616;2023-04-07T09:16:07;95106.78;;;12.84;44.21
9225;BME280;4647;48.072;11.616;2023-04-07T09:18:36;95111.06;;;12.53;43.62
9225;BME280;4647;48.072;11.616;2023-04-07T09:21:04;95110.38;;;12.49;43.94
9225;BME280;4647;48.072;11.616;2023-04-07T09:23:34;95113.19;;;12.13;44.01
9225;BME280;4647;48.072;11.616;2023-04-07T09:26:23;95090.06;;;12.53;43.88
9225;BME280;4647;48.072;11.616;2023-04-07T09:28:54;95101.13;;;12.46;43.66
9225;BME280;4647;48.072;11.616;2023-04-07T09:31:42;95101.88;;;12.63;43.83
9225;BME280;4647;48.072;11.616;2023-04-07T09:34:23;95097.81;;;12.22;44.61
9225;BME280;4647;48.072;11.616;2023-04-07T09:36:52;95098.78;;;12.77;43.68
9225;BME280;4647;48.072;11.616;2023-04-07T09:39:21;95089.47;;;12.78;43.22
9225;BME280;4647;48.072;11.616;2023-04-07T09:41:52;95077.78;;;12.49;43.16
9225;BME280;4647;48.072;11.616;2023-04-07T09:44:21;95083.38;;;11.93;43.34
9225;BME280;4647;48.072;11.616;2023-04-07T09:46:51;95095.53;;;11.88;43.63
9225;BME280;4647;48.072;11.616;2023-04-07T09:49:21;95085.44;;;11.89;43.59
9225;BME280;4647;48.072;11.616;2023-04-07T09:51:54;95087.00;;;11.50;44.14
9225;BME280;4647;48.072;11.616;2023-04-07T09:54:34;95080.84;;;11.86;44.11
9225;BME280;4647;48.072;11.616;2023-04-07T09:57:08;95072.47;;;10.61;46.61
9225;BME280;4647;48.072;11.616;2023-04-07T09:59:38;95061.66;;;11.41;45.19
9225;BME280;4647;48.072;11.616;2023-04-07T10:02:09;95067.13;;;12.09;44.35
9225;BME280;4647;48.072;11.616;2023-04-07T10:04:37;95083.41;;;12.09;44.54
9225;BME280;4647;48.072;11.616;2023-04-07T10:07:06;95082.28;;;12.23;43.03
9225;BME280;4647;48.072;11.616;2023-04-07T10:09:35;95075.81;;;11.48;44.66
9225;BME280;4647;48.072;11.616;2023-04-07T10:12:06;95079.38;;;11.25;45.23
9225;BME280;4647;48.072;11.616;2023-04-07T10:14:35;95072.84;;;11.59;44.54
9225;BME280;4647;48.072;11.616;2023-04-07T10:17:04;95071.84;;;11.89;43.99
9225;BME280;4647;48.072;11.616;2023-04-07T10:19:33;95080.25;;;12.43;43.08
9225;BME280;4647;48.072;11.616;2023-04-07T10:22:04;95045.72;;;12.11;43.46
9225;BME280;4647;48.072;11.616;2023-04-07T10:24:45;95073.09;;;12.66;41.55
9225;BME280;4647;48.072;11.616;2023-04-07T10:27:28;95068.19;;;11.79;43.62
9225;BME280;4647;48.072;11.616;2023-04-07T10:29:59;95073.03;;;11.88;43.25
9225;BME280;4647;48.072;11.616;2023-04-07T10:32:28;95069.47;;;12.40;42.41
9225;BME280;4647;48.072;11.616;2023-04-07T10:34:58;95072.88;;;11.95;42.59
9225;BME280;4647;48.072;11.616;2023-04-07T10:37:26;95067.75;;;11.81;43.13
9225;BME280;4647;48.072;11.616;2023-04-07T10:43:08;95062.66;;;12.64;41.25
9225;BME280;4647;48.072;11.616;2023-04-07T10:45:59;95069.25;;;12.79;41.37
9225;BME280;4647;48.072;11.616;2023-04-07T10:48:27;95057.56;;;12.50;41.09
9225;BME280;4647;48.072;11.616;2023-04-07T10:51:21;95063.38;;;12.36;42.50
9225;BME280;4647;48.072;11.616;2023-04-07T10:54:17;95058.53;;;12.72;40.71
9225;BME280;4647;48.072;11.616;2023-04-07T10:57:05;95059.25;;;12.89;40.37
9225;BME280;4647;48.072;11.616;2023-04-07T10:59:40;95055.34;;;13.19;40.09
9225;BME280;4647;48.072;11.616;2023-04-07T11:02:29;95062.03;;;13.02;39.74
9225;BME280;4647;48.072;11.616;2023-04-07T11:04:57;95060.66;;;13.64;38.96
9225;BME280;4647;48.072;11.616;2023-04-07T11:07:42;95061.75;;;13.79;38.32
9225;BME280;4647;48.072;11.616;2023-04-07T11:10:12;95059.03;;;13.67;39.25
9225;BME280;4647;48.072;11.616;2023-04-07T11:12:40;95053.47;;;13.70;38.97
9225;BME280;4647;48.072;11.616;2023-04-07T11:15:19;95058.47;;;14.10;38.20
9225;BME280;4647;48.072;11.616;2023-04-07T11:18:10;95048.84;;;14.31;38.10
9225;BME280;4647;48.072;11.616;2023-04-07T11:20:47;95058.25;;;13.92;39.24
9225;BME280;4647;48.072;11.616;2023-04-07T11:23:17;95055.19;;;13.10;41.64
9225;BME280;4647;48.072;11.616;2023-04-07T11:25:48;95047.13;;;13.35;40.32
9225;BME280;4647;48.072;11.616;2023-04-07T11:28:17;95054.22;;;13.04;41.00
9225;BME280;4647;48.072;11.616;2023-04-07T11:30:49;95047.56;;;13.46;39.83
9225;BME280;4647;48.072;11.616;2023-04-07T11:33:19;95042.81;;;14.01;39.19
9225;BME280;4647;48.072;11.616;2023-04-07T11:35:49;95041.59;;;13.51;39.51
9225;BME280;4647;48.072;11.616;2023-04-07T11:38:20;95049.75;;;13.39;40.13
9225;BME280;4647;48.072;11.616;2023-04-07T11:40:48;95047.97;;;12.90;40.90
9225;BME280;4647;48.072;11.616;2023-04-07T11:43:21;95042.06;;;12.79;41.47
9225;BME280;4647;48.072;11.616;2023-04-07T11:46:05;95051.06;;;13.47;40.31
9225;BME280;4647;48.072;11.616;2023-04-07T11:48:35;95055.09;;;13.68;39.44
9225;BME280;4647;48.072;11.616;2023-04-07T11:51:05;95049.78;;;14.02;39.03
9225;BME280;4647;48.072;11.616;2023-04-07T11:53:35;95028.41;;;14.01;38.26
9225;BME280;4647;48.072;11.616;2023-04-07T11:56:06;95042.25;;;13.81;38.86
9225;BME280;4647;48.072;11.616;2023-04-07T11:58:46;95048.03;;;13.58;39.79
9225;BME280;4647;48.072;11.616;2023-04-07T12:01:17;95038.97;;;13.48;39.91
9225;BME280;4647;48.072;11.616;2023-04-07T12:03:56;95040.44;;;13.24;39.68
9225;BME280;4647;48.072;11.616;2023-04-07T12:06:27;95035.91;;;13.33;39.59
9225;BME280;4647;48.072;11.616;2023-04-07T12:08:59;95037.44;;;14.10;38.38
9225;BME280;4647;48.072;11.616;2023-04-07T12:11:28;95036.34;;;14.21;37.85
9225;BME280;4647;48.072;11.616;2023-04-07T12:13:57;95037.84;;;14.34;38.42
9225;BME280;4647;48.072;11.616;2023-04-07T12:16:28;95028.72;;;14.63;38.07
9225;BME280;4647;48.072;11.616;2023-04-07T12:18:57;95013.84;;;13.82;38.77
9225;BME280;4647;48.072;11.616;2023-04-07T12:21:25;95023.75;;;13.63;39.94
9225;BME280;4647;48.072;11.616;2023-04-07T12:23:54;95039.09;;;13.57;39.37
9225;BME280;4647;48.072;11.616;2023-04-07T12:26:23;95037.47;;;13.85;38.54
9225;BME280;4647;48.072;11.616;2023-04-07T12:28:51;95031.31;;;14.32;37.96
9225;BME280;4647;48.072;11.616;2023-04-07T12:31:21;95037.75;;;14.72;37.23
9225;BME280;4647;48.072;11.616;2023-04-07T12:33:52;95035.50;;;15.15;36.27
9225;BME280;4647;48.072;11.616;2023-04-07T12:36:21;95044.72;;;15.61;35.87
9225;BME280;4647;48.072;11.616;2023-04-07T12:38:50;95036.88;;;14.76;37.48
9225;BME280;4647;48.072;11.616;2023-04-07T12:41:19;95038.84;;;14.75;37.07
9225;BME280;4647;48.072;11.616;2023-04-07T12:43:47;95029.09;;;14.52;37.02
9225;BME280;4647;48.072;11.616;2023-04-07T12:46:16;95034.91;;;14.29;38.07
9225;BME280;4647;48.072;11.616;2023-04-07T12:48:46;95035.81;;;14.13;38.26
9225;BME280;4647;48.072;11.616;2023-04-07T12:51:18;95035.06;;;14.00;38.04
9225;BME280;4647;48.072;11.616;2023-04-07T12:53:47;95034.81;;;14.45;37.34
9225;BME280;4647;48.072;11.616;2023-04-07T12:56:15;95026.09;;;14.12;37.37
9225;BME280;4647;48.072;11.616;2023-04-07T12:58:44;95025.94;;;13.81;38.43
9225;BME280;4647;48.072;11.616;2023-04-07T13:01:12;95035.47;;;14.24;38.14
9225;BME280;4647;48.072;11.616;2023-04-07T13:03:41;95025.94;;;13.14;41.71
9225;BME280;4647;48.072;11.616;2023-04-07T13:06:10;95035.34;;;12.97;41.60
9225;BME280;4647;48.072;11.616;2023-04-07T13:08:41;95033.94;;;12.63;42.53
9225;BME280;4647;48.072;11.616;2023-04-07T13:11:09;95036.13;;;12.68;42.67
9225;BME280;4647;48.072;11.616;2023-04-07T13:13:38;95035.59;;;12.28;42.83
9225;BME280;4647;48.072;11.616;2023-04-07T13:16:07;95039.25;;;12.38;42.50
9225;BME280;4647;48.072;11.616;2023-04-07T13:18:35;95034.16;;;12.40;43.68
9225;BME280;4647;48.072;11.616;2023-04-07T13:21:04;95031.78;;;12.42;43.74
9225;BME280;4647;48.072;11.616;2023-04-07T13:23:33;95022.06;;;12.57;43.18
9225;BME280;4647;48.072;11.616;2023-04-07T13:26:05;95040.72;;;12.10;44.62
9225;BME280;4647;48.072;11.616;2023-04-07T13:28:34;95042.16;;;11.98;43.09
9225;BME280;4647;48.072;11.616;2023-04-07T13:31:02;95034.78;;;12.15;43.36
9225;BME280;4647;48.072;11.616;2023-04-07T13:33:31;95035.25;;;12.26;43.02
9225;BME280;4647;48.072;11.616;2023-04-07T13:36:00;95036.34;;;12.45;42.81
9225;BME280;4647;48.072;11.616;2023-04-07T13:38:28;95030.28;;;12.53;42.64